首页
METAR-TAF:

METAR-TAF

机场 :

凯奇凯梅特, 匈牙利

纬度: 46-55N, 经度: 019-45E, 海拔: 113米

当前天气观测

该预报发布于23分钟前的08:45 UTC
风速2节,风向多变
温度 18°C
湿度 59%
气压 1020 hPa
能见度10公里或以上
1500米以下无云,无积雨云

METAR: LHKE 170845Z VRB02KT CAVOK 18/10 Q1020 NOSIG RMK BLU

时间: 11:08 (09:08 UTC)

预报

该预报发布于53分钟前的08:15 UTC
预报有效从17日的 09点(UTC)到 17日的 18点(UTC)
风速3节,风向多变
能见度10公里或以上
1500米以下无云,无积雨云

TAF: LHKE 170815Z 1709/1718 VRB03KT CAVOK

超过4000个机场的气象观测和天气预报(METAR&TAF报告)。

可查询的气象台以黄色和红色小点在地图上表示。

将鼠标移到小点上方,可查看气象台名称。

然后点击查看天气观测和预报。

如需切换地图:点击带黑十字的绿色按钮放大地图;点击带横线的绿色按钮缩小地图;或者点击绿色箭头查看邻近地区的地图。


METAR-TAF: